Time;durP1;ratioP1;P1;durP2;ratioP2;P2;SDS_P1;SDS_P2;PMS_P1;PMS_P2;Temp;Humidity;BMP_temperature;BMP_pressure;BME280_temperature;BME280_humidity;BME280_pressure;Samples;Min_cycle;Max_cycle;Signal;HPM_P1;HPM_P2
2021/12/13 00:01:44;;;;;;;129.88;33.22;;;9.90;99.90;;;;;;5017274;28;20041;-76
2021/12/13 00:04:21;;;;;;;120.32;32.33;;;9.90;99.90;;;;;;5017028;28;20040;-76
2021/12/13 00:06:52;;;;;;;163.35;34.90;;;9.90;99.90;;;;;;5051255;28;20119;-76
2021/12/13 00:09:25;;;;;;;185.90;35.28;;;9.90;99.90;;;;;;5036520;28;20064;-76
2021/12/13 00:11:59;;;;;;;164.73;33.38;;;9.90;99.90;;;;;;5037965;28;20032;-77
2021/12/13 00:14:34;;;;;;;143.20;32.10;;;9.90;99.90;;;;;;5036198;28;20091;-76
2021/12/13 00:17:07;;;;;;;170.10;33.25;;;9.90;99.90;;;;;;5037127;28;20033;-77
2021/12/13 00:19:47;;;;;;;131.63;32.25;;;9.90;99.90;;;;;;5037209;28;20465;-76
2021/12/13 00:22:19;;;;;;;120.80;31.20;;;9.90;99.90;;;;;;5036599;28;20174;-76
2021/12/13 00:24:47;;;;;;;148.13;29.95;;;9.90;99.90;;;;;;5036074;28;20052;-76
2021/12/13 00:27:19;;;;;;;130.77;28.45;;;9.90;99.90;;;;;;5019416;28;20306;-77
2021/12/13 00:30:22;;;;;;;117.70;29.33;;;9.90;99.90;;;;;;5033685;28;20036;-76
2021/12/13 00:33:10;;;;;;;200.05;30.52;;;9.90;99.90;;;;;;5016949;28;20405;-76
2021/12/13 00:35:46;;;;;;;141.13;28.35;;;9.90;99.90;;;;;;5018912;28;20103;-76
2021/12/13 00:38:14;;;;;;;154.43;29.80;;;9.90;99.90;;;;;;5037053;28;20032;-76
2021/12/13 00:40:48;;;;;;;94.22;28.25;;;9.90;99.90;;;;;;5022094;28;20036;-77
2021/12/13 00:43:21;;;;;;;104.82;29.27;;;9.90;99.90;;;;;;5016845;28;20091;-77
2021/12/13 00:45:57;;;;;;;118.35;29.35;;;9.90;99.90;;;;;;5031647;28;20040;-77
2021/12/13 00:48:27;;;;;;;112.53;29.38;;;9.90;99.90;;;;;;5041312;28;20032;-77
2021/12/13 00:50:59;;;;;;;141.77;32.30;;;9.90;99.90;;;;;;5030429;28;20048;-77
2021/12/13 00:53:26;;;;;;;140.57;30.77;;;10.00;99.90;;;;;;5057738;28;20488;-76
2021/12/13 00:55:52;;;;;;;114.65;28.45;;;10.00;99.90;;;;;;5041061;28;20299;-80
2021/12/13 00:58:21;;;;;;;119.68;28.35;;;10.00;99.90;;;;;;5040451;28;20036;-77
2021/12/13 01:01:01;;;;;;;125.15;28.77;;;10.00;99.90;;;;;;5040225;28;20036;-77
2021/12/13 01:03:46;;;;;;;112.45;26.88;;;10.00;99.90;;;;;;5032844;28;20076;-76
2021/12/13 01:07:03;;;;;;;138.88;28.40;;;10.00;99.90;;;;;;5026541;28;20427;-76
2021/12/13 01:09:58;;;;;;;118.05;27.50;;;10.00;99.90;;;;;;5040496;28;20048;-77
2021/12/13 01:12:27;;;;;;;99.90;26.05;;;10.00;99.90;;;;;;5039784;28;20037;-77
2021/12/13 01:15:00;;;;;;;99.68;27.02;;;10.00;99.90;;;;;;5038542;28;20514;-77
2021/12/13 01:17:56;;;;;;;;;;;10.00;99.90;;;;;;5036548;28;20123;-76
2021/12/13 01:20:32;;;;;;;97.55;26.02;;;10.00;99.90;;;;;;5019932;28;19923;-77
2021/12/13 01:23:05;;;;;;;99.00;26.15;;;10.00;99.90;;;;;;5019916;28;20037;-77
2021/12/13 01:26:00;;;;;;;;;;;10.00;99.90;;;;;;5020547;28;20040;-77
2021/12/13 01:28:38;;;;;;;111.93;25.52;;;10.00;99.90;;;;;;5020125;28;19917;-77
2021/12/13 01:31:09;;;;;;;111.60;26.75;;;9.90;99.90;;;;;;5035361;28;20079;-80
2021/12/13 01:33:39;;;;;;;77.80;24.48;;;10.00;99.90;;;;;;5039038;28;20052;-76
2021/12/13 01:36:10;;;;;;;130.10;26.45;;;10.00;99.90;;;;;;5039870;28;20090;-76
2021/12/13 01:38:44;;;;;;;79.57;24.15;;;9.90;99.90;;;;;;5039589;28;20116;-77
2021/12/13 01:41:17;;;;;;;116.65;25.90;;;9.90;99.90;;;;;;5040191;28;20507;-77
2021/12/13 01:43:48;;;;;;;;;;;9.90;99.90;;;;;;5040766;28;20049;-78
2021/12/13 01:46:16;;;;;;;113.63;25.27;;;9.90;99.90;;;;;;5053567;28;19916;-78
2021/12/13 01:48:45;;;;;;;144.15;26.90;;;9.90;99.90;;;;;;5039313;28;20037;-78
2021/12/13 01:51:19;;;;;;;97.55;26.17;;;9.90;99.90;;;;;;5039419;28;20498;-78
2021/12/13 01:54:09;;;;;;;109.45;25.30;;;9.80;99.90;;;;;;5039058;28;20048;-78
2021/12/13 01:57:21;;;;;;;88.05;26.92;;;9.90;99.90;;;;;;5023672;28;20044;-78
2021/12/13 02:00:07;;;;;;;78.68;26.35;;;9.80;99.90;;;;;;5036109;28;20408;-78
2021/12/13 02:02:37;;;;;;;83.90;26.70;;;9.80;99.90;;;;;;5024562;28;20492;-79
2021/12/13 02:05:06;;;;;;;96.78;26.25;;;9.80;99.90;;;;;;5039323;28;20044;-79
2021/12/13 02:08:02;;;;;;;105.40;27.42;;;9.80;99.90;;;;;;5038364;28;20090;-78
2021/12/13 02:10:43;;;;;;;101.50;27.63;;;9.80;99.90;;;;;;5035873;28;20051;-78
2021/12/13 02:13:21;;;;;;;101.13;28.88;;;9.80;99.90;;;;;;5018972;28;20041;-78
2021/12/13 02:18:42;;;;;;;;;;;9.80;99.90;;;;;;5065672;28;20052;-77
2021/12/13 02:21:36;;;;;;;74.80;26.60;;;9.80;99.90;;;;;;5055703;28;19966;-75
2021/12/13 02:24:09;;;;;;;90.30;27.50;;;9.70;99.90;;;;;;5085552;28;20033;-77
2021/12/13 02:26:37;;;;;;;68.47;26.85;;;9.70;99.90;;;;;;5043789;28;20048;-77
2021/12/13 02:29:16;;;;;;;83.93;26.88;;;9.70;99.90;;;;;;5015545;28;20033;-77
2021/12/13 02:31:43;;;;;;;101.30;28.40;;;9.60;99.90;;;;;;5028927;28;20052;-76
2021/12/13 02:34:12;;;;;;;75.25;26.42;;;9.70;99.90;;;;;;5035060;28;20124;-76
2021/12/13 02:36:46;;;;;;;87.43;26.13;;;9.60;99.90;;;;;;5037727;28;20411;-77
2021/12/13 02:39:34;;;;;;;72.93;26.55;;;9.50;99.90;;;;;;5054705;28;20486;-77
2021/12/13 02:42:02;;;;;;;66.78;24.92;;;9.50;99.90;;;;;;5054938;28;20133;-76
2021/12/13 02:44:37;;;;;;;72.50;26.58;;;9.50;99.90;;;;;;5038415;28;20119;-77
2021/12/13 02:47:19;;;;;;;61.30;25.60;;;9.40;99.90;;;;;;5026701;28;20099;-76
2021/12/13 02:49:45;;;;;;;57.33;24.55;;;9.40;99.90;;;;;;5028266;28;20045;-77
2021/12/13 02:52:14;;;;;;;57.53;24.05;;;9.40;99.90;;;;;;5054726;28;20043;-76
2021/12/13 02:54:46;;;;;;;59.42;23.23;;;9.30;99.90;;;;;;5054775;28;20044;-77
2021/12/13 02:57:22;;;;;;;54.25;23.23;;;9.30;99.90;;;;;;5025313;28;20175;-77
2021/12/13 03:00:06;;;;;;;46.08;21.55;;;9.30;99.90;;;;;;5035971;28;20036;-77
2021/12/13 03:02:39;;;;;;;65.10;23.23;;;9.20;99.90;;;;;;5018505;28;20404;-76
2021/12/13 03:05:09;;;;;;;43.47;19.17;;;9.30;99.90;;;;;;5024948;28;20037;-77
2021/12/13 03:07:42;;;;;;;53.50;19.98;;;9.20;99.90;;;;;;5035287;28;20072;-76
2021/12/13 03:10:16;;;;;;;49.28;18.95;;;9.20;99.90;;;;;;5034676;28;20049;-76
2021/12/13 03:12:43;;;;;;;38.10;17.52;;;9.20;99.90;;;;;;5034202;28;20052;-76
2021/12/13 03:15:13;;;;;;;31.73;15.80;;;9.20;99.90;;;;;;5030273;28;20047;-77
2021/12/13 03:17:47;;;;;;;33.13;16.38;;;9.20;99.90;;;;;;5022086;28;20547;-77
2021/12/13 03:20:19;;;;;;;32.58;15.35;;;9.10;99.90;;;;;;5034555;28;20488;-76
2021/12/13 03:23:15;;;;;;;29.65;14.38;;;9.10;99.90;;;;;;5034343;28;20041;-77
2021/12/13 03:25:59;;;;;;;39.45;15.13;;;9.10;99.90;;;;;;5035605;28;20040;-77
2021/12/13 03:28:48;;;;;;;36.15;13.88;;;9.10;99.90;;;;;;5053828;28;20488;-76
2021/12/13 03:31:25;;;;;;;41.15;14.40;;;9.10;99.90;;;;;;5054262;28;20170;-77
2021/12/13 03:33:51;;;;;;;41.15;14.20;;;9.10;99.90;;;;;;5054004;28;20517;-76
2021/12/13 03:36:20;;;;;;;29.42;14.38;;;9.10;99.90;;;;;;5028524;28;20064;-76
2021/12/13 03:38:54;;;;;;;38.22;15.45;;;9.10;99.90;;;;;;5052986;28;20614;-76
2021/12/13 03:41:24;;;;;;;30.35;13.80;;;9.10;99.90;;;;;;5036837;28;20033;-76
2021/12/13 03:44:00;;;;;;;39.03;15.70;;;9.10;99.90;;;;;;5037360;28;20515;-77
2021/12/13 03:46:30;;;;;;;34.83;15.00;;;9.10;99.90;;;;;;5044822;28;20041;-77
2021/12/13 03:48:57;;;;;;;38.97;15.65;;;9.00;99.90;;;;;;5034025;28;20049;-77
2021/12/13 03:51:32;;;;;;;40.20;17.10;;;9.00;99.90;;;;;;5039636;28;20044;-77
2021/12/13 03:53:59;;;;;;;39.47;16.42;;;9.00;99.90;;;;;;5052624;28;20063;-77
2021/12/13 03:56:31;;;;;;;35.78;17.02;;;9.00;99.90;;;;;;5044863;28;20107;-76
2021/12/13 03:59:02;;;;;;;29.75;15.90;;;9.00;99.90;;;;;;5017476;28;20041;-77
2021/12/13 04:01:40;;;;;;;34.70;16.27;;;8.90;99.90;;;;;;5045339;28;20076;-76
2021/12/13 04:04:11;;;;;;;42.13;17.25;;;8.90;99.90;;;;;;5053498;28;20049;-77
2021/12/13 04:06:45;;;;;;;38.03;15.70;;;8.90;99.90;;;;;;5040137;28;20159;-77
2021/12/13 04:09:12;;;;;;;33.50;15.07;;;8.90;99.90;;;;;;5014521;28;20041;-76
2021/12/13 04:11:41;;;;;;;29.33;14.68;;;8.80;99.90;;;;;;5033639;28;20404;-77
2021/12/13 04:14:13;;;;;;;32.90;15.05;;;8.80;99.90;;;;;;5036725;28;20032;-77
2021/12/13 04:17:04;;;;;;;31.65;13.95;;;8.80;99.90;;;;;;5026705;28;20493;-77
2021/12/13 04:19:50;;;;;;;35.42;14.93;;;8.80;99.90;;;;;;5033309;28;20033;-77
2021/12/13 04:22:19;;;;;;;26.55;13.98;;;8.80;99.90;;;;;;5059879;28;20041;-77
2021/12/13 04:24:54;;;;;;;35.83;14.43;;;8.80;99.90;;;;;;5042942;28;20044;-77
2021/12/13 04:27:22;;;;;;;32.05;13.82;;;8.80;99.90;;;;;;5040962;28;20095;-76
2021/12/13 04:29:51;;;;;;;30.85;14.10;;;8.80;99.90;;;;;;5060272;28;20090;-77
2021/12/13 04:32:29;;;;;;;23.65;12.55;;;8.80;99.90;;;;;;5058479;28;20040;-78
2021/12/13 04:34:57;;;;;;;23.35;12.65;;;8.80;99.90;;;;;;5059764;28;20044;-77
2021/12/13 04:37:34;;;;;;;22.73;11.60;;;8.80;99.90;;;;;;5027278;28;20037;-77
2021/12/13 04:40:17;;;;;;;18.20;11.18;;;8.80;99.90;;;;;;5029499;28;20036;-77
2021/12/13 04:42:43;;;;;;;25.20;11.75;;;8.80;99.90;;;;;;5053302;28;20119;-77
2021/12/13 04:45:19;;;;;;;20.70;9.88;;;8.90;99.90;;;;;;5060086;28;20044;-76
2021/12/13 04:47:53;;;;;;;22.88;10.82;;;8.80;99.90;;;;;;5036089;28;20041;-76
2021/12/13 04:50:29;;;;;;;18.83;10.27;;;8.90;99.90;;;;;;5059932;28;20123;-76
2021/12/13 04:52:57;;;;;;;22.95;10.52;;;8.90;99.90;;;;;;5043155;28;20492;-76
2021/12/13 04:55:31;;;;;;;19.23;9.82;;;8.90;99.90;;;;;;5058598;28;20109;-76
2021/12/13 04:57:59;;;;;;;24.30;10.57;;;8.90;99.90;;;;;;5046255;28;20055;-77
2021/12/13 05:00:29;;;;;;;21.98;10.77;;;8.90;99.90;;;;;;5039874;28;20090;-77
2021/12/13 05:02:59;;;;;;;17.23;10.05;;;8.90;99.90;;;;;;5051892;28;20396;-76
2021/12/13 05:05:26;;;;;;;20.55;10.50;;;8.90;99.90;;;;;;5043017;28;20093;-76
2021/12/13 05:07:53;;;;;;;19.75;10.55;;;8.90;99.90;;;;;;5058154;28;20054;-77
2021/12/13 05:10:23;;;;;;;21.90;10.27;;;8.90;99.90;;;;;;5059288;28;20047;-77
2021/12/13 05:13:09;;;;;;;21.27;9.77;;;8.90;99.90;;;;;;5050892;28;20143;-77
2021/12/13 05:15:41;;;;;;;21.95;10.48;;;8.90;99.90;;;;;;5039507;28;20037;-77
2021/12/13 05:18:16;;;;;;;20.20;11.57;;;8.90;99.90;;;;;;5053612;28;20527;-77
2021/12/13 05:20:42;;;;;;;20.15;11.48;;;8.90;99.90;;;;;;5059033;28;20036;-76
2021/12/13 05:23:19;;;;;;;22.77;11.98;;;8.90;99.90;;;;;;5059465;28;20047;-76
2021/12/13 05:25:50;;;;;;;23.65;12.05;;;8.90;99.90;;;;;;5030723;28;20048;-77
2021/12/13 05:28:22;;;;;;;24.25;13.02;;;8.80;99.90;;;;;;5029682;28;20119;-77
2021/12/13 05:30:57;;;;;;;23.30;14.00;;;8.90;99.90;;;;;;5059610;28;20089;-77
2021/12/13 05:33:25;;;;;;;26.67;14.77;;;8.90;99.90;;;;;;5038858;28;20040;-76
2021/12/13 05:35:53;;;;;;;28.73;15.32;;;8.90;99.90;;;;;;5056037;28;20439;-76
2021/12/13 05:38:32;;;;;;;28.80;15.43;;;8.90;99.90;;;;;;5038603;28;20127;-77
2021/12/13 05:41:00;;;;;;;31.50;15.88;;;8.90;99.90;;;;;;5045877;28;20129;-76
2021/12/13 05:43:42;;;;;;;29.15;16.33;;;8.90;99.90;;;;;;5035972;28;20037;-76
2021/12/13 05:46:34;;;;;;;32.17;18.02;;;8.80;99.90;;;;;;5038514;28;20404;-76
2021/12/13 05:49:02;;;;;;;29.77;18.20;;;8.90;99.90;;;;;;5039530;28;20067;-77
2021/12/13 05:51:45;;;;;;;32.05;18.88;;;8.80;99.90;;;;;;5056061;28;20408;-76
2021/12/13 05:54:22;;;;;;;32.45;18.33;;;8.80;99.90;;;;;;5055282;28;20044;-77
2021/12/13 05:56:59;;;;;;;32.55;19.90;;;8.80;99.90;;;;;;5052104;28;20090;-76
2021/12/13 05:59:26;;;;;;;31.80;19.00;;;8.90;99.90;;;;;;5039424;28;20127;-77
2021/12/13 06:02:07;;;;;;;32.25;20.65;;;8.80;99.90;;;;;;5043331;28;20098;-76
2021/12/13 06:04:54;;;;;;;36.75;20.75;;;8.80;99.90;;;;;;5024447;28;20076;-76
2021/12/13 06:07:30;;;;;;;35.15;20.80;;;8.80;99.90;;;;;;5051034;28;20041;-77
2021/12/13 06:10:00;;;;;;;33.92;21.27;;;8.90;99.90;;;;;;5024013;28;20087;-76
2021/12/13 06:12:31;;;;;;;41.83;22.55;;;8.90;99.90;;;;;;5053937;28;20037;-76
2021/12/13 06:15:24;;;;;;;38.05;22.15;;;8.80;99.90;;;;;;5048012;28;20078;-77
2021/12/13 06:17:59;;;;;;;42.95;23.70;;;8.80;99.90;;;;;;5038999;28;20036;-76
2021/12/13 06:20:29;;;;;;;39.50;23.02;;;8.80;99.90;;;;;;5055289;28;20047;-78
2021/12/13 06:23:25;;;;;;;41.33;24.15;;;8.80;99.90;;;;;;5034888;28;20112;-78
2021/12/13 06:25:58;;;;;;;41.15;26.10;;;8.80;99.90;;;;;;5029248;28;20052;-79
2021/12/13 06:28:26;;;;;;;;;;;8.90;99.90;;;;;;5024267;28;20120;-78
2021/12/13 06:31:08;;;;;;;40.30;24.80;;;8.90;99.90;;;;;;5035572;28;20570;-78
2021/12/13 06:33:45;;;;;;;47.25;26.70;;;8.90;99.90;;;;;;5047200;28;20055;-76
2021/12/13 06:36:11;;;;;;;44.80;27.02;;;8.90;99.90;;;;;;5028930;28;20033;-78
2021/12/13 06:38:47;;;;;;;45.08;27.58;;;8.90;99.90;;;;;;5038458;28;20086;-77
2021/12/13 06:41:28;;;;;;;45.83;27.35;;;8.90;99.90;;;;;;5038767;28;20037;-78
2021/12/13 06:44:15;;;;;;;45.92;28.10;;;8.90;99.90;;;;;;5036987;28;20130;-78
2021/12/13 06:47:01;;;;;;;47.05;29.00;;;8.90;99.90;;;;;;5038634;28;20041;-77
2021/12/13 06:49:31;;;;;;;47.83;27.52;;;8.90;99.90;;;;;;5054937;28;20052;-77
2021/12/13 06:52:12;;;;;;;51.38;30.52;;;8.90;99.90;;;;;;5055320;28;20127;-77
2021/12/13 06:54:42;;;;;;;49.10;29.90;;;8.90;99.90;;;;;;5031059;28;20041;-77
2021/12/13 06:57:23;;;;;;;51.50;28.45;;;8.90;99.90;;;;;;5055034;28;20041;-77
2021/12/13 07:00:11;;;;;;;51.05;29.55;;;8.90;99.90;;;;;;5055342;28;20059;-78
2021/12/13 07:02:45;;;;;;;51.95;29.50;;;8.90;99.90;;;;;;5043805;28;20490;-77
2021/12/13 07:05:42;;;;;;;49.92;29.65;;;8.90;99.90;;;;;;5021978;28;20041;-77
2021/12/13 07:08:15;;;;;;;52.95;31.20;;;8.90;99.90;;;;;;5000791;28;20114;-77
2021/12/13 07:11:03;;;;;;;48.95;30.45;;;8.90;99.90;;;;;;5043239;28;20098;-79
2021/12/13 07:13:40;;;;;;;47.85;28.70;;;8.90;99.90;;;;;;5054142;28;20434;-77
2021/12/13 07:16:13;;;;;;;51.70;29.23;;;8.90;99.90;;;;;;5036793;28;20032;-76
2021/12/13 07:18:48;;;;;;;53.78;29.83;;;8.90;99.90;;;;;;5034503;28;20076;-76
2021/12/13 07:21:21;;;;;;;47.85;28.60;;;8.90;99.90;;;;;;5051375;28;20040;-76
2021/12/13 07:24:08;;;;;;;48.55;29.75;;;8.90;99.90;;;;;;5054333;28;20041;-78
2021/12/13 07:26:37;;;;;;;47.53;29.17;;;8.90;99.90;;;;;;5053964;28;20119;-76
2021/12/13 07:29:09;;;;;;;46.95;29.27;;;8.90;99.90;;;;;;5049300;28;20055;-76
2021/12/13 07:31:36;;;;;;;55.75;30.83;;;8.90;99.90;;;;;;5037025;28;20055;-80
2021/12/13 07:34:32;;;;;;;47.42;28.60;;;8.90;99.90;;;;;;5031595;28;20058;-81
2021/12/13 07:37:03;;;;;;;46.20;28.77;;;8.90;99.90;;;;;;5029455;28;20511;-80
2021/12/13 07:39:31;;;;;;;44.97;28.50;;;8.80;99.90;;;;;;5054381;28;20123;-80
2021/12/13 07:42:09;;;;;;;46.05;27.73;;;8.90;99.90;;;;;;5054036;28;20124;-81
2021/12/13 07:44:47;;;;;;;41.28;28.92;;;8.80;99.90;;;;;;5033699;28;20123;-81
2021/12/13 07:47:24;;;;;;;50.13;29.33;;;8.90;99.90;;;;;;5052091;28;20157;-80
2021/12/13 07:49:53;;;;;;;50.55;29.85;;;8.80;99.90;;;;;;5037421;28;20044;-81
2021/12/13 07:52:37;;;;;;;41.88;27.63;;;8.80;99.90;;;;;;5037817;28;20102;-81
2021/12/13 07:55:22;;;;;;;51.70;28.48;;;8.80;99.90;;;;;;5053400;28;20530;-80
2021/12/13 07:57:49;;;;;;;44.88;28.33;;;8.80;99.90;;;;;;5054227;28;20136;-81
2021/12/13 08:00:20;;;;;;;43.72;28.23;;;8.90;99.90;;;;;;5054304;28;20434;-81
2021/12/13 08:02:59;;;;;;;45.08;28.17;;;8.80;99.90;;;;;;5037144;28;20040;-81
2021/12/13 08:05:38;;;;;;;45.88;28.20;;;8.80;99.90;;;;;;5037177;28;20043;-81
2021/12/13 08:08:06;;;;;;;43.92;27.63;;;8.80;99.90;;;;;;5037373;28;20090;-81
2021/12/13 08:10:40;;;;;;;43.50;27.25;;;8.80;99.90;;;;;;5050468;28;20128;-80
2021/12/13 08:13:13;;;;;;;47.50;28.55;;;8.80;99.90;;;;;;5050577;28;20032;-81
2021/12/13 08:15:47;;;;;;;42.70;28.48;;;8.80;99.90;;;;;;5089969;23;20384;-76
2021/12/13 08:18:35;;;;;;;44.42;26.75;;;8.80;99.90;;;;;;5057382;28;20387;-79
2021/12/13 08:21:09;;;;;;;44.88;28.05;;;8.80;99.90;;;;;;5057484;28;20189;-79
2021/12/13 08:23:40;;;;;;;46.33;28.08;;;8.80;99.90;;;;;;5074346;28;20043;-79
2021/12/13 08:26:09;;;;;;;45.13;28.23;;;8.80;99.90;;;;;;5057371;28;20047;-79
2021/12/13 08:28:41;;;;;;;50.35;28.77;;;8.80;99.90;;;;;;5074412;28;20040;-79
2021/12/13 08:31:21;;;;;;;46.55;27.90;;;8.90;99.90;;;;;;5057658;28;20170;-79
2021/12/13 08:33:51;;;;;;;41.83;28.27;;;8.80;99.90;;;;;;5074420;28;20040;-79
2021/12/13 08:36:31;;;;;;;43.50;28.23;;;8.90;99.90;;;;;;5057261;28;20036;-79
2021/12/13 08:39:08;;;;;;;40.58;26.50;;;8.90;99.90;;;;;;5074199;28;20544;-79
2021/12/13 08:41:47;;;;;;;39.53;26.48;;;8.90;99.90;;;;;;5057454;28;20400;-79
2021/12/13 08:44:15;;;;;;;44.42;27.15;;;8.90;99.90;;;;;;5073899;28;20040;-79
2021/12/13 08:46:46;;;;;;;44.92;27.30;;;8.90;99.90;;;;;;5073959;28;20111;-79
2021/12/13 08:49:30;;;;;;;45.17;26.42;;;8.90;99.90;;;;;;5057231;28;20089;-79
2021/12/13 08:52:10;;;;;;;40.45;25.60;;;8.90;99.90;;;;;;5056880;28;20047;-79
2021/12/13 08:55:04;;;;;;;43.85;26.33;;;8.90;99.90;;;;;;5073685;28;20032;-79
2021/12/13 08:57:32;;;;;;;37.83;25.50;;;8.90;99.90;;;;;;5073909;28;20380;-79
2021/12/13 09:00:00;;;;;;;39.58;25.00;;;9.00;99.90;;;;;;5073924;28;20040;-79
2021/12/13 09:02:34;;;;;;;39.92;25.45;;;9.00;99.90;;;;;;5073516;28;20036;-79
2021/12/13 09:05:07;;;;;;;37.92;25.15;;;9.00;99.90;;;;;;5073662;28;20055;-79
2021/12/13 09:07:32;;;;;;;;;;;9.00;99.90;;;;;;5079162;28;20499;-80
2021/12/13 09:09:58;;;;;;;37.30;23.75;;;9.00;99.90;;;;;;5085598;28;19923;-79
2021/12/13 09:12:36;;;;;;;45.42;25.88;;;9.00;99.90;;;;;;5084920;28;20096;-79
2021/12/13 09:15:14;;;;;;;38.10;24.58;;;9.00;99.90;;;;;;5080917;28;20093;-79
2021/12/13 09:17:41;;;;;;;38.65;23.88;;;9.00;99.90;;;;;;5077633;28;20047;-78
2021/12/13 09:20:19;;;;;;;41.70;24.92;;;9.00;99.90;;;;;;5060322;28;20032;-79
2021/12/13 09:22:54;;;;;;;41.92;24.33;;;9.00;99.90;;;;;;5076850;28;20054;-79
2021/12/13 09:25:28;;;;;;;39.33;23.70;;;9.10;99.90;;;;;;5060473;28;20089;-79
2021/12/13 09:28:08;;;;;;;41.50;23.38;;;9.10;99.90;;;;;;5077145;28;20046;-79
2021/12/13 09:30:46;;;;;;;41.65;24.95;;;9.10;99.90;;;;;;5077595;28;20122;-79
2021/12/13 09:33:33;;;;;;;40.60;24.50;;;9.10;99.90;;;;;;5076484;28;20407;-79
2021/12/13 09:36:20;;;;;;;37.78;24.00;;;9.10;99.90;;;;;;5076721;28;20388;-79
2021/12/13 09:38:55;;;;;;;39.50;24.77;;;9.20;99.90;;;;;;5076950;28;20148;-79
2021/12/13 09:41:47;;;;;;;42.15;25.20;;;9.20;99.90;;;;;;5060515;28;20068;-79
2021/12/13 09:44:12;;;;;;;41.97;24.23;;;9.20;99.90;;;;;;5076317;28;20510;-79
2021/12/13 09:47:19;;;;;;;39.70;23.25;;;9.20;99.90;;;;;;5077123;28;20090;-79
2021/12/13 09:49:56;;;;;;;38.33;23.20;;;9.30;99.90;;;;;;5012217;28;20441;-79
2021/12/13 09:53:00;;;;;;;40.03;23.23;;;9.30;99.90;;;;;;4995994;28;20042;-80
2021/12/13 09:55:33;;;;;;;40.03;23.15;;;9.30;99.90;;;;;;5012465;28;20048;-79
2021/12/13 09:58:11;;;;;;;;;;;9.30;99.90;;;;;;5061083;28;20048;-79
2021/12/13 10:00:46;;;;;;;35.20;21.52;;;9.30;99.90;;;;;;5060623;28;19920;-79
2021/12/13 10:03:46;;;;;;;34.60;21.05;;;9.30;99.90;;;;;;5077049;28;20085;-79
2021/12/13 10:06:13;;;;;;;36.50;22.33;;;9.30;99.90;;;;;;5077980;28;20508;-80
2021/12/13 10:08:44;;;;;;;31.35;21.50;;;9.30;99.90;;;;;;5061768;28;20089;-79
2021/12/13 10:11:19;;;;;;;34.97;21.73;;;9.30;99.90;;;;;;5078571;28;20055;-80
2021/12/13 10:13:45;;;;;;;34.05;20.67;;;9.30;99.90;;;;;;5077721;28;20105;-80
2021/12/13 10:16:15;;;;;;;32.47;20.73;;;9.30;99.90;;;;;;5063163;28;20475;-80
2021/12/13 10:18:44;;;;;;;37.13;20.67;;;9.30;99.90;;;;;;5079320;28;20040;-79
2021/12/13 10:21:20;;;;;;;31.13;20.77;;;9.30;99.90;;;;;;5081996;28;20043;-80
2021/12/13 10:23:58;;;;;;;34.33;19.88;;;9.40;99.90;;;;;;5080578;28;20050;-80
2021/12/13 10:26:28;;;;;;;29.42;20.13;;;9.40;99.90;;;;;;5077619;28;20039;-79
2021/12/13 10:28:58;;;;;;;34.60;20.73;;;9.30;99.90;;;;;;5077007;28;20074;-79
2021/12/13 10:31:51;;;;;;;32.00;20.13;;;9.40;99.90;;;;;;5077135;28;20048;-79
2021/12/13 10:34:27;;;;;;;35.57;20.03;;;9.40;99.90;;;;;;5060024;28;20071;-79
2021/12/13 10:36:58;;;;;;;31.60;20.63;;;9.30;99.90;;;;;;5076408;28;20039;-80
2021/12/13 10:39:34;;;;;;;32.03;22.52;;;9.40;99.90;;;;;;5076108;28;20050;-79
2021/12/13 10:42:05;;;;;;;35.67;21.33;;;9.30;99.90;;;;;;5060059;28;20043;-79
2021/12/13 10:44:31;;;;;;;29.58;20.25;;;9.40;99.90;;;;;;5076043;28;20221;-80
2021/12/13 10:47:10;;;;;;;32.35;20.88;;;9.40;99.90;;;;;;5058915;28;20074;-79
2021/12/13 10:49:40;;;;;;;33.08;20.63;;;9.40;99.90;;;;;;5075550;28;20395;-79
2021/12/13 10:52:16;;;;;;;32.83;21.20;;;9.40;99.90;;;;;;5058465;28;20170;-79
2021/12/13 10:54:46;;;;;;;35.13;21.52;;;9.40;99.90;;;;;;5058046;28;20039;-79
2021/12/13 10:57:31;;;;;;;34.63;22.05;;;9.40;99.90;;;;;;5075565;28;20067;-79
2021/12/13 10:59:58;;;;;;;35.60;20.90;;;9.50;99.90;;;;;;5058346;28;20039;-79
2021/12/13 11:02:29;;;;;;;37.13;21.20;;;9.50;99.90;;;;;;5074958;28;20040;-79
2021/12/13 11:05:04;;;;;;;29.63;20.30;;;9.50;99.90;;;;;;5074997;28;20445;-79
2021/12/13 11:07:30;;;;;;;30.45;19.70;;;9.50;99.90;;;;;;5074965;28;20051;-79
2021/12/13 11:09:58;;;;;;;32.60;20.30;;;9.50;99.90;;;;;;5058321;28;20048;-78
2021/12/13 11:12:38;;;;;;;29.40;18.80;;;9.60;99.90;;;;;;5057858;28;20048;-79
2021/12/13 11:15:18;;;;;;;34.78;20.35;;;9.60;99.90;;;;;;5074393;28;20097;-79
2021/12/13 11:17:45;;;;;;;34.17;20.88;;;9.60;99.90;;;;;;5074924;28;20079;-79
2021/12/13 11:20:26;;;;;;;31.02;20.05;;;9.60;99.90;;;;;;5074402;28;20040;-79
2021/12/13 11:22:52;;;;;;;30.83;21.05;;;9.60;99.90;;;;;;5074105;28;20487;-78
2021/12/13 11:25:27;;;;;;;34.10;21.73;;;9.70;99.90;;;;;;5074645;28;20044;-79
2021/12/13 11:27:53;;;;;;;32.55;20.90;;;9.70;99.90;;;;;;5074634;28;20438;-79
2021/12/13 11:30:25;;;;;;;32.40;20.33;;;9.70;99.90;;;;;;5073617;28;20369;-79
2021/12/13 11:32:56;;;;;;;33.13;20.58;;;9.70;99.90;;;;;;5074323;28;20561;-78
2021/12/13 11:35:59;;;;;;;32.33;19.27;;;9.70;99.90;;;;;;5074296;28;20032;-78
2021/12/13 11:39:00;;;;;;;32.28;19.45;;;9.60;99.90;;;;;;5057468;28;20123;-79
2021/12/13 11:41:51;;;;;;;29.92;19.98;;;9.70;99.90;;;;;;5057522;28;20044;-79
2021/12/13 11:44:56;;;;;;;29.00;19.25;;;9.70;99.90;;;;;;5074072;28;20446;-78
2021/12/13 11:47:40;;;;;;;28.80;18.83;;;9.70;99.90;;;;;;5074021;28;20089;-78
2021/12/13 11:51:03;;;;;;;29.95;18.52;;;9.70;99.90;;;;;;5074201;28;20566;-78
2021/12/13 11:54:00;;;;;;;29.25;19.25;;;9.80;99.90;;;;;;4977322;28;20398;-78
2021/12/13 11:56:50;;;;;;;29.70;19.65;;;9.80;99.90;;;;;;5009800;28;20141;-78
2021/12/13 11:59:53;;;;;;;25.10;17.45;;;9.80;99.90;;;;;;5064940;28;20487;-78
2021/12/13 12:02:40;;;;;;;29.15;19.25;;;9.80;99.90;;;;;;5073888;28;20089;-78
2021/12/13 12:05:41;;;;;;;28.92;18.23;;;9.80;99.90;;;;;;5057255;28;20040;-78
2021/12/13 12:08:28;;;;;;;25.15;17.38;;;9.80;99.90;;;;;;5057173;28;20162;-79
2021/12/13 12:11:25;;;;;;;28.10;17.83;;;9.90;99.90;;;;;;5073655;28;20048;-78
2021/12/13 12:14:06;;;;;;;28.23;18.08;;;9.90;99.90;;;;;;5073652;28;20556;-78
2021/12/13 12:16:46;;;;;;;29.67;18.50;;;9.90;99.90;;;;;;5073655;28;20036;-79
2021/12/13 12:19:21;;;;;;;29.55;18.95;;;9.90;99.90;;;;;;5056911;28;20037;-79
2021/12/13 12:21:55;;;;;;;25.77;17.45;;;9.90;99.90;;;;;;5073957;28;20036;-78
2021/12/13 12:24:26;;;;;;;26.73;18.33;;;10.00;99.90;;;;;;5073423;28;20032;-78
2021/12/13 12:26:57;;;;;;;29.08;18.23;;;10.00;99.90;;;;;;5057185;28;20040;-78
2021/12/13 12:29:29;;;;;;;26.13;17.00;;;10.00;99.90;;;;;;5073608;28;20040;-78
2021/12/13 12:32:24;;;;;;;25.93;17.30;;;10.00;99.90;;;;;;5073554;28;20043;-78
2021/12/13 12:34:57;;;;;;;22.02;15.05;;;10.10;99.90;;;;;;5065819;28;20302;-78
2021/12/13 12:37:25;;;;;;;28.58;16.15;;;10.10;99.90;;;;;;5056924;28;20040;-79
2021/12/13 12:40:09;;;;;;;24.55;16.50;;;10.10;99.90;;;;;;5073402;28;20037;-78
2021/12/13 12:42:44;;;;;;;24.50;17.83;;;10.10;99.90;;;;;;5059155;28;20047;-79
2021/12/13 12:45:18;;;;;;;25.42;16.02;;;10.10;99.90;;;;;;5077363;28;20055;-78
2021/12/13 12:47:47;;;;;;;25.65;16.92;;;10.20;99.90;;;;;;5077387;28;20113;-79
2021/12/13 12:50:22;;;;;;;23.40;15.32;;;10.20;99.90;;;;;;5077582;28;20068;-78
2021/12/13 12:52:56;;;;;;;24.00;15.52;;;10.30;99.90;;;;;;5077507;28;20373;-78
2021/12/13 12:55:29;;;;;;;23.90;15.85;;;10.30;99.90;;;;;;5060512;28;20477;-79
2021/12/13 12:57:56;;;;;;;23.98;15.15;;;10.30;99.90;;;;;;5077330;28;20075;-79
2021/12/13 13:00:25;;;;;;;23.85;16.05;;;10.30;99.90;;;;;;5060604;28;20067;-79
2021/12/13 13:02:51;;;;;;;22.77;15.43;;;10.20;99.90;;;;;;5060222;28;20587;-78
2021/12/13 13:05:19;;;;;;;22.08;16.50;;;10.20;99.90;;;;;;5077208;28;20123;-78
2021/12/13 13:07:45;;;;;;;21.58;14.80;;;10.20;99.90;;;;;;5076984;28;20043;-78
2021/12/13 13:10:23;;;;;;;24.48;15.90;;;10.20;99.90;;;;;;5060321;28;20042;-79
2021/12/13 13:13:02;;;;;;;25.95;15.27;;;10.20;99.90;;;;;;5077058;28;20116;-79
2021/12/13 13:15:34;;;;;;;24.52;15.73;;;10.20;99.90;;;;;;5076675;28;20373;-79
2021/12/13 13:18:04;;;;;;;25.67;15.75;;;10.20;99.90;;;;;;5076872;28;20047;-78
2021/12/13 13:20:47;;;;;;;23.52;15.85;;;10.20;99.90;;;;;;5060169;28;20058;-78
2021/12/13 13:23:14;;;;;;;23.45;15.57;;;10.10;99.90;;;;;;5076631;28;20032;-78
2021/12/13 13:25:41;;;;;;;21.92;16.55;;;10.10;99.90;;;;;;5076629;28;20046;-78